Waikoloa, HI (96738)

2:08 PM HST on December 24, 2014 (GMT -1000)
Eleele Street | Change Station
CLOSE
Current Station
Personal Weather Station
Location: Waikoloa, HI
Elevation: 1037 ft
Nearby Weather Stations
Active Advisory: Flash Flood Watch Active Notice: Record Report

Elev 1037 ft 19.95 °N, 155.78 °W | Updated 4 seconds ago

Overcast
Overcast
72.9 °F
Feels Like 74 °F
N
6.0
Wind Variable Wind from SW
Gusts 0.0 mph

Today
High -- | Low -- °F
--% Chance of Precip.
Yesterday
High -- | Low -- °F
Precip. -- in
6:55 AM 5:51 PM
Waxing Crescent, 12% visible
Pressure 29.75 in
Visibility 10.0 miles
Clouds Few 1900 ft
Mostly Cloudy 4200 ft
Overcast 5000 ft
Heat Index 74 °F
Dew Point 65 °F
Humidity 77%
Rainfall 0.00 in
Snow Depth Not available.
UV 2 out of 12
Pollen Not available.
Air Quality Not available.
Flu Activity Not available.
METAR PHKO 242353Z 30008KT 10SM FEW019 BKN042 OVC050 25/19 A2975 RMK AO2 SLP073 60001 T02500194 10267 20222 58028

More Conditions Fewer Conditions

Pressure 29.75 in
Visibility 10.0 miles
Clouds Few 1900 ft
Mostly Cloudy 4200 ft
Overcast 5000 ft
Heat Index 74 °F
Dew Point 65 °F
Humidity 77%
Rainfall 0.00 in
Snow Depth Not available.
UV 2 out of 12
Pollen Not available.
Air Quality Not available.
Flu Activity Not available.
METAR PHKO 242353Z 30008KT 10SM FEW019 BKN042 OVC050 25/19 A2975 RMK AO2 SLP073 60001 T02500194 10267 20222 58028

More Conditions Fewer Conditions

10-Day Weather Forecast

Almanac

Astronomy

Dec. 24, 2014 Rise Set
Actual Time
Civil Twilight
Nautical Twilight
Astronomical Twilight
Moon
Length of Visible Light
Length of Day
Tomorrow will be .
, % of the Moon is Illuminated

Today's Extremes

State Highs State Lows

Community

WunderPhotos

Upload Photos

1,780,188 photos uploaded!

WunderBlogs® & News

Nearby

Air Quality

  Air Quality AQ Index Pollutant
Not available.

Snow Depth

Station Depth Elevation

Earthquake Activity

City Distance Mag. Time & Date
Minimum magnitude displayed is 2.5.

Coastal Water Temperatures

Place Temperature

Nearby Weather Stations